Time;durP1;ratioP1;P1;durP2;ratioP2;P2;SDS_P1;SDS_P2;PMS_P1;PMS_P2;Temp;Humidity;BMP_temperature;BMP_pressure;BME280_temperature;BME280_humidity;BME280_pressure;Samples;Min_cycle;Max_cycle;Signal;HPM_P1;HPM_P2
2021/09/10 00:00:32;;;;;;;28.67;21.63;;;;;;;21.01;95.08;100670.34;5018132;28;20058;-89
2021/09/10 00:02:57;;;;;;;26.83;20.95;;;;;;;21.01;95.52;100656.72;5021741;28;20045;-84
2021/09/10 00:05:22;;;;;;;29.10;21.17;;;;;;;20.99;95.29;100661.56;5018437;28;20048;-84
2021/09/10 00:07:48;;;;;;;28.63;21.92;;;;;;;20.97;94.90;100667.25;5017937;28;20074;-84
2021/09/10 00:10:13;;;;;;;33.90;22.23;;;;;;;20.96;95.06;100668.31;5020246;28;20545;-84
2021/09/10 00:12:39;;;;;;;26.92;20.75;;;;;;;20.92;95.88;100665.25;5018252;28;20058;-84
2021/09/10 00:15:05;;;;;;;31.05;22.58;;;;;;;20.90;96.20;100672.00;5034106;28;20050;-88
2021/09/10 00:17:31;;;;;;;29.67;22.10;;;;;;;20.91;95.88;100662.75;5019713;28;20045;-86
2021/09/10 00:19:56;;;;;;;28.33;23.48;;;;;;;20.90;95.31;100658.34;5027413;28;20057;-86
2021/09/10 00:22:22;;;;;;;30.17;22.67;;;;;;;20.89;96.40;100654.81;5028598;28;20539;-84
2021/09/10 00:24:47;;;;;;;30.20;22.98;;;;;;;20.86;96.39;100654.41;5020280;28;20044;-85
2021/09/10 00:27:13;;;;;;;29.45;23.65;;;;;;;20.84;96.59;100657.41;5022950;28;20085;-85
2021/09/10 00:29:38;;;;;;;30.15;24.73;;;;;;;20.84;95.98;100657.41;5021266;28;20049;-83
2021/09/10 00:32:04;;;;;;;32.42;25.45;;;;;;;20.81;97.37;100651.59;5019878;28;20206;-85
2021/09/10 00:34:29;;;;;;;29.88;24.83;;;;;;;20.79;96.79;100654.53;5024359;28;20052;-85
2021/09/10 00:36:55;;;;;;;30.60;24.45;;;;;;;20.78;94.95;100658.34;5020507;28;20045;-83
2021/09/10 00:39:21;;;;;;;30.35;23.65;;;;;;;20.79;96.52;100662.72;5023791;28;20052;-84
2021/09/10 00:41:47;;;;;;;31.88;24.10;;;;;;;20.77;96.90;100659.41;5023317;28;20545;-90
2021/09/10 00:44:13;;;;;;;29.85;23.25;;;;;;;20.74;95.26;100657.13;5022118;28;20053;-84
2021/09/10 00:46:38;;;;;;;27.65;21.77;;;;;;;20.71;96.64;100665.78;5021418;28;20135;-83
2021/09/10 00:49:04;;;;;;;28.58;21.85;;;;;;;20.70;96.95;100661.41;5022354;28;20053;-84
2021/09/10 00:51:30;;;;;;;28.27;22.50;;;;;;;20.71;96.54;100663.06;5022460;28;20052;-84
2021/09/10 00:53:55;;;;;;;28.05;22.50;;;;;;;20.70;96.27;100669.59;5023090;28;21100;-87
2021/09/10 00:56:22;;;;;;;27.67;22.08;;;;;;;20.63;98.02;100657.94;5022332;28;20061;-85
2021/09/10 00:58:47;;;;;;;29.77;21.80;;;;;;;20.65;97.33;100658.56;5023263;28;20046;-86
2021/09/10 01:01:13;;;;;;;28.58;21.60;;;;;;;20.62;97.20;100662.56;5023391;28;20507;-85
2021/09/10 01:03:38;;;;;;;28.50;22.30;;;;;;;20.65;96.75;100655.81;5019893;28;20600;-85
2021/09/10 01:06:04;;;;;;;30.02;22.27;;;;;;;20.63;98.27;100655.22;5036701;28;20476;-86
2021/09/10 01:08:31;;;;;;;28.98;21.70;;;;;;;20.64;97.29;100657.72;5022324;28;20092;-84
2021/09/10 01:10:58;;;;;;;30.27;21.70;;;;;;;20.58;98.70;100668.75;5025105;28;20165;-87
2021/09/10 01:13:24;;;;;;;26.63;21.48;;;;;;;20.57;97.69;100661.59;5021075;28;20446;-87
2021/09/10 01:15:50;;;;;;;29.67;22.15;;;;;;;20.59;97.67;100667.66;5023504;28;20121;-84
2021/09/10 01:18:15;;;;;;;29.15;21.98;;;;;;;20.56;99.03;100665.41;5027090;28;20072;-91
2021/09/10 01:20:41;;;;;;;32.00;22.60;;;;;;;20.56;98.03;100670.84;5026381;28;20092;-84
2021/09/10 01:23:06;;;;;;;31.83;23.90;;;;;;;20.56;96.99;100666.22;5026594;28;20524;-89
2021/09/10 01:25:31;;;;;;;28.35;22.15;;;;;;;20.49;98.89;100666.31;5027704;28;20041;-84
2021/09/10 01:28:00;;;;;;;30.20;22.90;;;;;;;20.48;99.62;100669.25;5028200;28;20042;-84
2021/09/10 01:30:28;;;;;;;32.25;23.90;;;;;;;20.49;97.74;100668.22;5025833;28;20061;-87
2021/09/10 01:32:55;;;;;;;29.42;23.25;;;;;;;20.49;98.52;100671.75;5027494;28;20392;-86
2021/09/10 01:35:20;;;;;;;30.77;22.05;;;;;;;20.40;99.54;100673.16;5027768;28;20046;-84
2021/09/10 01:37:46;;;;;;;30.88;21.65;;;;;;;20.44;98.40;100671.63;5026739;28;20049;-85
2021/09/10 01:40:12;;;;;;;33.83;23.80;;;;;;;20.39;99.67;100670.66;5027684;28;20053;-85
2021/09/10 01:42:38;;;;;;;28.05;22.45;;;;;;;20.36;99.36;100671.94;5025312;28;20038;-85
2021/09/10 01:45:08;;;;;;;29.27;23.10;;;;;;;20.34;99.51;100670.50;5027767;28;20107;-86
2021/09/10 01:47:35;;;;;;;31.88;24.75;;;;;;;20.37;98.53;100667.31;5026751;28;20083;-85
2021/09/10 01:50:05;;;;;;;32.17;24.95;;;;;;;20.37;98.09;100675.50;5026389;28;20424;-85
2021/09/10 01:52:30;;;;;;;33.38;24.02;;;;;;;20.28;99.23;100675.00;5025321;28;20482;-84
2021/09/10 01:54:56;;;;;;;31.17;25.13;;;;;;;20.26;100.00;100671.69;5026903;28;20178;-84
2021/09/10 01:57:21;;;;;;;33.75;25.63;;;;;;;20.27;98.68;100673.34;5027201;28;20046;-85
2021/09/10 01:59:46;;;;;;;31.83;25.80;;;;;;;20.26;98.80;100677.97;5026683;28;20046;-83
2021/09/10 02:02:12;;;;;;;32.15;24.75;;;;;;;20.17;100.00;100681.22;5026975;28;20037;-84
2021/09/10 02:04:38;;;;;;;33.30;25.50;;;;;;;20.19;99.53;100681.84;5024640;28;20524;-86
2021/09/10 02:07:04;;;;;;;33.05;26.10;;;;;;;20.19;98.99;100688.09;5053738;28;20047;-86
2021/09/10 02:09:29;;;;;;;34.58;26.73;;;;;;;20.21;99.08;100679.72;5043834;28;20056;-85
2021/09/10 02:11:55;;;;;;;34.95;26.88;;;;;;;20.13;99.59;100682.75;5026500;28;20053;-84
2021/09/10 02:14:20;;;;;;;32.28;25.45;;;;;;;20.12;99.24;100681.94;5027423;28;20080;-84
2021/09/10 02:16:45;;;;;;;33.33;26.00;;;;;;;20.10;99.68;100686.78;5023555;28;20481;-86
2021/09/10 02:19:11;;;;;;;31.92;24.90;;;;;;;20.03;99.46;100686.03;5026979;28;20037;-84
2021/09/10 02:21:37;;;;;;;34.17;24.98;;;;;;;20.00;100.00;100691.94;5026101;28;20507;-84
2021/09/10 02:24:04;;;;;;;34.58;24.70;;;;;;;19.98;100.00;100689.44;5026891;28;20056;-84
2021/09/10 02:26:29;;;;;;;33.40;24.00;;;;;;;19.96;100.00;100685.28;5026848;28;20041;-85
2021/09/10 02:28:54;;;;;;;34.97;25.27;;;;;;;19.97;99.84;100692.41;5024503;28;20052;-84
2021/09/10 02:31:20;;;;;;;32.30;24.05;;;;;;;19.97;100.00;100681.50;5025395;28;20099;-86
2021/09/10 02:33:46;;;;;;;33.88;25.33;;;;;;;19.92;100.00;100693.09;5025921;28;20045;-84
2021/09/10 02:36:11;;;;;;;34.03;24.80;;;;;;;19.94;99.72;100685.53;5026283;28;20591;-85
2021/09/10 02:38:37;;;;;;;31.75;25.08;;;;;;;19.93;100.00;100689.28;5025905;28;20045;-84
2021/09/10 02:41:02;;;;;;;35.42;26.42;;;;;;;19.92;100.00;100681.38;5024945;28;20408;-88
2021/09/10 02:43:27;;;;;;;33.88;26.58;;;;;;;19.94;100.00;100681.94;5023187;28;20125;-85
2021/09/10 02:45:53;;;;;;;37.30;28.45;;;;;;;19.87;100.00;100678.47;5041818;28;20080;-85
2021/09/10 02:48:18;;;;;;;34.80;27.08;;;;;;;19.86;100.00;100676.84;5025828;28;20049;-88
2021/09/10 02:50:43;;;;;;;35.92;28.10;;;;;;;19.84;100.00;100677.88;5021845;28;20041;-87
2021/09/10 02:53:08;;;;;;;37.83;27.80;;;;;;;19.86;100.00;100671.38;5023264;28;20377;-84
2021/09/10 02:55:34;;;;;;;39.92;28.58;;;;;;;19.81;100.00;100672.06;5024202;28;20244;-85
2021/09/10 02:57:59;;;;;;;36.53;28.17;;;;;;;19.81;100.00;100670.16;5026357;28;20427;-84
2021/09/10 03:00:25;;;;;;;37.60;29.45;;;;;;;19.73;100.00;100662.28;5040053;28;20502;-85
2021/09/10 03:02:51;;;;;;;38.20;28.40;;;;;;;19.68;100.00;100661.31;5024448;28;20104;-83
2021/09/10 03:05:16;;;;;;;34.17;28.20;;;;;;;19.73;100.00;100661.47;5028001;28;20046;-86
2021/09/10 03:07:41;;;;;;;37.85;27.75;;;;;;;19.66;100.00;100668.91;5023875;28;20148;-84
2021/09/10 03:10:08;;;;;;;36.10;27.30;;;;;;;19.59;100.00;100661.63;5025372;28;20126;-86
2021/09/10 03:12:35;;;;;;;41.53;27.85;;;;;;;19.55;100.00;100665.84;5024995;28;20052;-86
2021/09/10 03:15:01;;;;;;;35.55;26.05;;;;;;;19.53;100.00;100661.66;5041274;28;20115;-86
2021/09/10 03:17:26;;;;;;;34.20;25.85;;;;;;;19.51;100.00;100672.81;5024139;28;20436;-92
2021/09/10 03:19:52;;;;;;;37.72;26.85;;;;;;;19.50;100.00;100673.00;5025068;28;20057;-84
2021/09/10 03:22:17;;;;;;;36.78;27.40;;;;;;;19.48;100.00;100670.53;5024476;28;20049;-86
2021/09/10 03:24:42;;;;;;;35.33;25.33;;;;;;;19.42;100.00;100671.44;5039166;28;20053;-84
2021/09/10 03:27:08;;;;;;;34.22;24.60;;;;;;;19.39;100.00;100661.84;5026198;28;20049;-85
2021/09/10 03:29:33;;;;;;;35.53;23.90;;;;;;;19.34;100.00;100669.84;5018744;28;20504;-90
2021/09/10 03:31:59;;;;;;;34.80;24.95;;;;;;;19.33;100.00;100662.75;5015544;28;20045;-84
2021/09/10 03:34:28;;;;;;;32.95;23.95;;;;;;;19.31;100.00;100666.72;5012923;28;20239;-84
2021/09/10 03:36:54;;;;;;;31.10;22.92;;;;;;;19.27;100.00;100657.34;5017711;28;20049;-84
2021/09/10 03:39:19;;;;;;;32.55;23.83;;;;;;;19.23;100.00;100664.31;5024066;28;20531;-87
2021/09/10 03:41:44;;;;;;;32.20;23.33;;;;;;;19.19;100.00;100665.78;5021487;28;20140;-88
2021/09/10 03:44:10;;;;;;;34.33;24.13;;;;;;;19.16;100.00;100659.75;5024234;28;20164;-87
2021/09/10 03:46:35;;;;;;;31.45;22.15;;;;;;;19.14;100.00;100664.59;5024540;28;20049;-84
2021/09/10 03:49:00;;;;;;;35.13;23.58;;;;;;;19.10;100.00;100657.09;5025819;28;20128;-87
2021/09/10 03:51:26;;;;;;;30.73;22.60;;;;;;;19.11;100.00;100665.03;5022233;28;20045;-87
2021/09/10 03:53:51;;;;;;;32.65;22.60;;;;;;;19.07;100.00;100674.69;5020562;28;20049;-91
2021/09/10 03:56:17;;;;;;;31.38;23.35;;;;;;;19.03;100.00;100662.59;5024445;28;20049;-84
2021/09/10 03:58:43;;;;;;;31.50;22.60;;;;;;;19.01;100.00;100661.16;5034815;28;20552;-87
2021/09/10 04:01:08;;;;;;;31.65;22.52;;;;;;;19.00;100.00;100664.94;5023573;28;20145;-86
2021/09/10 04:03:34;;;;;;;31.73;22.05;;;;;;;18.96;100.00;100666.41;5025324;28;20124;-85
2021/09/10 04:06:00;;;;;;;32.88;23.75;;;;;;;18.91;100.00;100658.94;5017826;28;20045;-87
2021/09/10 04:08:26;;;;;;;32.67;24.17;;;;;;;18.91;100.00;100654.34;5023906;28;20049;-89
2021/09/10 04:10:51;;;;;;;31.02;23.65;;;;;;;18.88;100.00;100659.41;5021554;28;20554;-85
2021/09/10 04:13:16;;;;;;;35.80;25.48;;;;;;;18.87;100.00;100657.72;5023542;28;20124;-86
2021/09/10 04:15:42;;;;;;;40.40;28.13;;;;;;;18.90;100.00;100651.81;5017181;28;20049;-86
2021/09/10 04:18:07;;;;;;;40.00;30.08;;;;;;;18.89;100.00;100651.00;5020036;28;20088;-87
2021/09/10 04:20:34;;;;;;;35.08;26.50;;;;;;;18.87;100.00;100652.28;5011046;28;20108;-87
2021/09/10 04:23:01;;;;;;;35.33;25.75;;;;;;;18.86;100.00;100656.06;5012824;28;20065;-89
2021/09/10 04:25:27;;;;;;;35.75;25.80;;;;;;;18.85;100.00;100651.69;5017185;28;20682;-85
2021/09/10 04:27:53;;;;;;;37.65;24.83;;;;;;;18.86;100.00;100650.63;5015797;28;21754;-86
2021/09/10 04:30:18;;;;;;;38.53;26.50;;;;;;;18.87;100.00;100652.28;5018649;28;20720;-86
2021/09/10 04:32:44;;;;;;;37.55;25.77;;;;;;;18.87;100.00;100646.84;5012481;28;20072;-83
2021/09/10 04:35:11;;;;;;;36.47;24.98;;;;;;;18.83;100.00;100648.34;5020348;28;20060;-84
2021/09/10 04:37:38;;;;;;;35.22;25.25;;;;;;;18.80;100.00;100646.06;5023890;28;20671;-83
2021/09/10 04:40:04;;;;;;;35.00;26.02;;;;;;;18.77;100.00;100647.34;5018800;28;20408;-83
2021/09/10 04:42:29;;;;;;;34.33;26.23;;;;;;;18.76;100.00;100659.28;5023866;28;20054;-83
2021/09/10 04:44:55;;;;;;;37.55;28.27;;;;;;;18.72;100.00;100647.97;5018556;28;20052;-89
2021/09/10 04:47:20;;;;;;;38.80;30.20;;;;;;;18.75;100.00;100654.06;5019037;28;20052;-84
2021/09/10 04:49:46;;;;;;;35.58;26.98;;;;;;;18.75;100.00;100660.31;5021149;28;20095;-83
2021/09/10 04:52:11;;;;;;;36.10;26.65;;;;;;;18.75;100.00;100663.03;5022345;28;20064;-87
2021/09/10 04:54:37;;;;;;;30.00;24.10;;;;;;;18.71;100.00;100668.06;5013418;28;20053;-83
2021/09/10 04:57:03;;;;;;;31.23;23.52;;;;;;;18.67;100.00;100666.84;5020525;28;20046;-88
2021/09/10 04:59:29;;;;;;;32.38;24.40;;;;;;;18.68;100.00;100667.69;5020829;28;20392;-83
2021/09/10 05:01:54;;;;;;;32.70;24.48;;;;;;;18.68;100.00;100673.09;5021923;28;20057;-85
2021/09/10 05:04:22;;;;;;;33.92;23.95;;;;;;;18.65;100.00;100668.13;5020686;28;20053;-86
2021/09/10 05:06:47;;;;;;;32.47;23.33;;;;;;;18.62;100.00;100677.53;5017629;28;20053;-83
2021/09/10 05:09:13;;;;;;;34.17;24.15;;;;;;;18.63;100.00;100679.19;5019429;28;20539;-88
2021/09/10 05:11:38;;;;;;;34.72;23.27;;;;;;;18.61;100.00;100681.28;5013264;28;20045;-83
2021/09/10 05:14:04;;;;;;;34.63;24.55;;;;;;;18.62;100.00;100674.81;5020376;28;20057;-88
2021/09/10 05:16:29;;;;;;;33.45;24.38;;;;;;;18.61;100.00;100677.75;5020018;28;20455;-83
2021/09/10 05:18:54;;;;;;;37.97;24.27;;;;;;;18.57;100.00;100680.06;5020292;28;20497;-83
2021/09/10 05:21:20;;;;;;;37.33;24.40;;;;;;;18.56;100.00;100689.28;5017277;28;20049;-84
2021/09/10 05:23:45;;;;;;;34.65;24.00;;;;;;;18.58;100.00;100691.78;5020425;28;20049;-83
2021/09/10 05:26:11;;;;;;;31.85;23.92;;;;;;;18.60;100.00;100687.78;5017896;28;20060;-83
2021/09/10 05:28:36;;;;;;;36.60;25.33;;;;;;;18.60;100.00;100685.06;5021702;28;20133;-83
2021/09/10 05:31:02;;;;;;;34.75;22.95;;;;;;;18.59;100.00;100683.41;5022471;28;20595;-83
2021/09/10 05:33:28;;;;;;;32.15;23.67;;;;;;;18.61;100.00;100685.91;5018889;28;20049;-87
2021/09/10 05:35:53;;;;;;;31.15;21.42;;;;;;;18.66;100.00;100689.63;5021475;28;20120;-83
2021/09/10 05:38:19;;;;;;;36.70;23.13;;;;;;;18.66;100.00;100692.34;5021290;28;20424;-84
2021/09/10 05:40:44;;;;;;;30.05;21.92;;;;;;;18.67;100.00;100691.31;5021180;28;20045;-87
2021/09/10 05:43:10;;;;;;;29.92;22.30;;;;;;;18.71;100.00;100687.09;5029379;28;20057;-83
2021/09/10 05:45:35;;;;;;;29.20;21.90;;;;;;;18.72;100.00;100694.19;5016130;28;20045;-89
2021/09/10 05:48:01;;;;;;;29.90;20.88;;;;;;;18.74;100.00;100694.00;5021323;28;20052;-86
2021/09/10 05:50:26;;;;;;;31.13;21.40;;;;;;;18.73;100.00;100708.63;5019696;28;20081;-83
2021/09/10 05:52:51;;;;;;;29.90;23.00;;;;;;;18.74;100.00;100695.88;5015488;28;20092;-82
2021/09/10 05:55:17;;;;;;;28.45;21.88;;;;;;;18.75;100.00;100705.69;5035497;28;20076;-84
2021/09/10 05:57:42;;;;;;;29.27;22.27;;;;;;;18.78;100.00;100707.97;5020201;28;20096;-88
2021/09/10 06:00:08;;;;;;;26.73;20.73;;;;;;;18.80;100.00;100712.16;5020198;28;20053;-84
2021/09/10 06:02:33;;;;;;;27.50;22.15;;;;;;;18.81;100.00;100710.25;5018415;28;20050;-85
2021/09/10 06:04:59;;;;;;;26.88;21.05;;;;;;;18.83;100.00;100711.69;5021232;28;20053;-82
2021/09/10 06:07:24;;;;;;;32.30;20.60;;;;;;;18.86;100.00;100711.25;5019524;28;20049;-82
2021/09/10 06:09:50;;;;;;;28.45;22.50;;;;;;;18.88;100.00;100719.22;5019776;28;20041;-84
2021/09/10 06:12:15;;;;;;;29.63;21.60;;;;;;;18.94;100.00;100715.59;5019871;28;20057;-83
2021/09/10 06:14:40;;;;;;;30.35;21.50;;;;;;;18.97;100.00;100717.88;5018397;28;20504;-83
2021/09/10 06:17:06;;;;;;;27.58;21.67;;;;;;;18.98;100.00;100719.53;5021815;28;20104;-83
2021/09/10 06:19:32;;;;;;;27.75;23.10;;;;;;;19.05;100.00;100724.94;5021231;28;20053;-83
2021/09/10 06:21:57;;;;;;;29.27;23.65;;;;;;;19.05;100.00;100720.31;5015848;28;20391;-85
2021/09/10 06:24:23;;;;;;;33.40;25.50;;;;;;;19.15;100.00;100723.34;5016054;28;20057;-84
2021/09/10 06:26:48;;;;;;;30.10;26.77;;;;;;;19.18;100.00;100730.25;5017394;28;20492;-85
2021/09/10 06:29:14;;;;;;;25.55;22.25;;;;;;;19.25;100.00;100730.19;5017949;28;20056;-86
2021/09/10 06:31:42;;;;;;;29.25;21.08;;;;;;;19.28;100.00;100735.19;5017780;28;20116;-83
2021/09/10 06:34:08;;;;;;;23.73;20.42;;;;;;;19.31;100.00;100745.63;5020569;28;20041;-82
2021/09/10 06:36:34;;;;;;;27.58;22.05;;;;;;;19.36;100.00;100732.16;5017434;28;20045;-83
2021/09/10 06:38:59;;;;;;;23.20;19.00;;;;;;;19.45;100.00;100728.13;5020165;28;20050;-84
2021/09/10 06:41:25;;;;;;;21.42;18.40;;;;;;;19.51;100.00;100737.28;5022091;28;20187;-83
2021/09/10 06:43:50;;;;;;;23.10;17.70;;;;;;;19.60;100.00;100742.19;5019221;28;20063;-83
2021/09/10 06:46:16;;;;;;;18.55;16.33;;;;;;;19.64;100.00;100739.84;5017811;28;20048;-88
2021/09/10 06:48:41;;;;;;;22.92;15.90;;;;;;;19.68;100.00;100741.13;5019435;28;20056;-83
2021/09/10 06:51:07;;;;;;;23.63;15.27;;;;;;;19.74;100.00;100739.38;5020380;28;20097;-88
2021/09/10 06:53:34;;;;;;;18.88;14.77;;;;;;;19.78;100.00;100741.41;5021622;28;20615;-83
2021/09/10 06:55:59;;;;;;;19.33;15.77;;;;;;;19.85;100.00;100752.22;5018157;28;20404;-84
2021/09/10 06:58:25;;;;;;;18.92;15.60;;;;;;;19.90;100.00;100744.22;5020914;28;20053;-83
2021/09/10 07:00:51;;;;;;;17.83;14.88;;;;;;;19.92;100.00;100742.09;5019853;28;20045;-85
2021/09/10 07:03:16;;;;;;;19.25;14.07;;;;;;;19.91;100.00;100743.16;5018522;28;20092;-85
2021/09/10 07:05:42;;;;;;;18.38;14.82;;;;;;;19.95;100.00;100747.09;5020534;28;20049;-84
2021/09/10 07:08:08;;;;;;;18.30;14.40;;;;;;;20.04;100.00;100743.00;5020722;28;20049;-87
2021/09/10 07:10:33;;;;;;;17.80;14.20;;;;;;;20.04;100.00;100745.72;5018590;28;20061;-84
2021/09/10 07:12:59;;;;;;;18.92;14.55;;;;;;;20.08;98.04;100750.69;5018822;28;20807;-87
2021/09/10 07:15:25;;;;;;;17.70;15.23;;;;;;;20.10;99.67;100754.88;5014050;28;20056;-83
2021/09/10 07:17:51;;;;;;;16.30;14.10;;;;;;;20.11;99.43;100751.09;5017631;28;20046;-84
2021/09/10 07:20:16;;;;;;;17.23;13.65;;;;;;;20.13;100.00;100748.13;5019133;28;20684;-89
2021/09/10 07:22:41;;;;;;;17.80;14.45;;;;;;;20.09;99.90;100755.94;5016107;28;20136;-84
2021/09/10 07:25:08;;;;;;;16.90;13.95;;;;;;;20.11;100.00;100752.97;5022552;28;20111;-82
2021/09/10 07:27:34;;;;;;;16.98;13.95;;;;;;;20.14;100.00;100755.22;5020287;28;20721;-83
2021/09/10 07:29:59;;;;;;;17.55;13.90;;;;;;;20.14;100.00;100758.81;5020400;28;20145;-86
2021/09/10 07:32:26;;;;;;;16.52;13.48;;;;;;;20.20;100.00;100759.81;5020236;28;20164;-86
2021/09/10 07:34:51;;;;;;;16.48;13.60;;;;;;;20.18;99.52;100757.28;5018564;28;20046;-87
2021/09/10 07:37:17;;;;;;;16.60;13.60;;;;;;;20.23;99.46;100759.34;5021697;28;20309;-87
2021/09/10 07:39:42;;;;;;;19.80;14.45;;;;;;;20.30;98.29;100757.34;5021741;28;20146;-89
2021/09/10 07:42:07;;;;;;;17.92;13.32;;;;;;;20.36;99.01;100759.16;5022825;28;20052;-86
2021/09/10 07:44:33;;;;;;;16.27;13.48;;;;;;;20.42;98.40;100760.13;5023801;28;20106;-84
2021/09/10 07:46:59;;;;;;;16.95;13.15;;;;;;;20.48;98.19;100765.50;5020514;28;20058;-90
2021/09/10 07:49:24;;;;;;;16.45;12.73;;;;;;;20.56;99.04;100769.00;5026325;28;20042;-86
2021/09/10 07:51:51;;;;;;;15.40;12.48;;;;;;;20.64;99.69;100765.94;5022106;28;20042;-87
2021/09/10 07:54:16;;;;;;;15.13;11.43;;;;;;;20.77;98.19;100765.75;5025910;28;20045;-85
2021/09/10 07:56:41;;;;;;;12.27;10.48;;;;;;;20.85;96.28;100765.41;5018896;28;20049;-85
2021/09/10 07:59:07;;;;;;;12.45;10.38;;;;;;;20.97;96.00;100765.44;5023728;28;20132;-87
2021/09/10 08:01:32;;;;;;;13.27;9.52;;;;;;;21.09;94.70;100770.91;5021965;28;20061;-86
2021/09/10 08:03:58;;;;;;;12.80;9.38;;;;;;;21.13;94.22;100763.94;5023136;28;20045;-86
2021/09/10 08:06:23;;;;;;;10.80;9.13;;;;;;;21.19;94.71;100774.75;5022568;28;20050;-86
2021/09/10 08:08:49;;;;;;;12.82;9.73;;;;;;;21.26;93.48;100769.19;5018517;28;20080;-85
2021/09/10 08:11:15;;;;;;;11.55;8.68;;;;;;;21.33;93.00;100780.81;5021681;28;20058;-90
2021/09/10 08:13:41;;;;;;;10.18;8.05;;;;;;;21.38;92.19;100777.44;5017739;28;20049;-85
2021/09/10 08:16:07;;;;;;;10.23;7.78;;;;;;;21.46;91.89;100778.94;5019756;28;20056;-84
2021/09/10 08:18:34;;;;;;;9.40;7.40;;;;;;;21.56;92.37;100776.47;5020422;28;20049;-85
2021/09/10 08:21:00;;;;;;;9.65;7.40;;;;;;;21.55;90.86;100772.06;5021295;28;20064;-83
2021/09/10 08:23:25;;;;;;;11.20;6.75;;;;;;;21.58;91.48;100772.44;5021025;28;20051;-91
2021/09/10 08:25:52;;;;;;;10.48;7.18;;;;;;;21.66;90.35;100773.13;5023129;28;20042;-87
2021/09/10 08:28:18;;;;;;;9.82;6.97;;;;;;;21.69;89.87;100786.31;5024783;28;20493;-84
2021/09/10 08:30:45;;;;;;;10.25;6.50;;;;;;;21.67;89.14;100789.31;5021312;28;20104;-84
2021/09/10 08:33:13;;;;;;;9.32;6.50;;;;;;;21.69;88.38;100784.41;5006679;28;20076;-85
2021/09/10 08:35:39;;;;;;;11.23;7.10;;;;;;;21.75;88.85;100791.69;5022846;28;20088;-89
2021/09/10 08:38:06;;;;;;;9.95;6.93;;;;;;;21.85;89.18;100788.34;5020569;28;20077;-84
2021/09/10 08:40:35;;;;;;;9.70;7.05;;;;;;;21.83;87.88;100791.28;5025554;28;20041;-89
2021/09/10 08:43:01;;;;;;;8.35;5.97;;;;;;;21.80;87.93;100794.50;5023697;28;20477;-88
2021/09/10 08:45:29;;;;;;;7.32;6.50;;;;;;;21.83;87.85;100802.22;5025396;28;20111;-84
2021/09/10 08:47:55;;;;;;;10.90;6.30;;;;;;;21.95;87.05;100801.38;5018465;28;20057;-90
2021/09/10 08:50:23;;;;;;;12.35;7.22;;;;;;;21.95;86.75;100807.69;5024888;28;20132;-85
2021/09/10 08:52:48;;;;;;;10.13;6.68;;;;;;;21.98;87.06;100809.09;5022398;28;20096;-85
2021/09/10 08:55:16;;;;;;;9.27;6.57;;;;;;;22.00;86.90;100805.06;5021406;28;20045;-86
2021/09/10 08:57:51;;;;;;;9.48;6.65;;;;;;;21.93;87.01;100807.09;5024281;28;20054;-88
2021/09/10 09:00:25;;;;;;;8.10;6.65;;;;;;;21.97;86.69;100810.16;5020673;28;20147;-83
2021/09/10 09:03:02;;;;;;;9.15;6.60;;;;;;;22.02;86.59;100810.28;5022343;28;20080;-85
2021/09/10 09:05:30;;;;;;;11.02;7.40;;;;;;;22.04;87.22;100819.09;5020019;28;20061;-91
2021/09/10 09:08:12;;;;;;;9.15;7.47;;;;;;;21.99;87.71;100811.59;5021388;28;20041;-85
2021/09/10 09:11:02;;;;;;;13.30;7.22;;;;;;;21.95;87.18;100804.97;5020077;28;20612;-86
2021/09/10 09:13:34;;;;;;;9.23;6.93;;;;;;;21.97;87.37;100804.72;5035789;28;20598;-87
2021/09/10 09:16:12;;;;;;;10.57;7.03;;;;;;;22.11;87.73;100808.84;5020578;28;20636;-84
2021/09/10 09:18:39;;;;;;;9.05;6.70;;;;;;;22.23;87.72;100806.13;5018928;28;20484;-91
2021/09/10 09:21:05;;;;;;;10.55;7.00;;;;;;;22.28;86.75;100808.97;5022485;28;20061;-84
2021/09/10 09:23:31;;;;;;;8.23;7.00;;;;;;;22.25;86.29;100813.00;5023277;28;20660;-84
2021/09/10 09:25:57;;;;;;;8.90;6.90;;;;;;;22.33;86.89;100802.75;5023177;28;20065;-86
2021/09/10 09:28:24;;;;;;;9.02;6.63;;;;;;;22.41;87.05;100813.31;5018432;28;20042;-85
2021/09/10 09:30:52;;;;;;;9.70;7.03;;;;;;;22.54;85.78;100818.53;5023635;28;20454;-85
2021/09/10 09:33:18;;;;;;;9.97;7.13;;;;;;;22.50;84.89;100817.34;5021300;28;20446;-84
2021/09/10 09:35:46;;;;;;;8.35;6.20;;;;;;;22.66;84.70;100821.22;5026806;28;20036;-84
2021/09/10 09:38:21;;;;;;;8.60;6.35;;;;;;;22.79;85.28;100823.66;5027401;28;20046;-84
2021/09/10 09:40:52;;;;;;;8.00;6.30;;;;;;;22.87;83.55;100814.22;5025417;28;20048;-87
2021/09/10 09:43:23;;;;;;;8.70;6.43;;;;;;;22.93;83.59;100822.28;5027000;28;20049;-84
2021/09/10 09:45:51;;;;;;;8.40;6.10;;;;;;;22.88;81.66;100824.09;5025165;28;20060;-85
2021/09/10 09:48:19;;;;;;;8.27;6.47;;;;;;;22.91;81.60;100829.06;5027143;28;20485;-85
2021/09/10 09:50:45;;;;;;;8.75;5.78;;;;;;;22.94;81.25;100817.63;5025089;28;20562;-91
2021/09/10 09:53:14;;;;;;;9.32;6.30;;;;;;;23.05;81.95;100819.53;5027454;28;20729;-87
2021/09/10 09:55:44;;;;;;;8.35;5.90;;;;;;;23.06;81.36;100828.56;5027208;28;20393;-86
2021/09/10 09:58:09;;;;;;;7.78;5.40;;;;;;;23.12;80.95;100825.66;5021915;28;20084;-85
2021/09/10 10:00:37;;;;;;;7.40;5.60;;;;;;;23.14;80.09;100828.97;5014910;28;20481;-85
2021/09/10 10:03:03;;;;;;;7.18;4.80;;;;;;;23.24;80.17;100838.44;5025937;28;20124;-82
2021/09/10 10:05:31;;;;;;;9.88;4.90;;;;;;;23.20;80.23;100841.69;5028708;28;20049;-83
2021/09/10 10:08:04;;;;;;;6.60;4.82;;;;;;;23.24;79.44;100833.78;5028655;28;20056;-83
2021/09/10 10:10:44;;;;;;;6.32;4.60;;;;;;;23.28;79.83;100842.38;5028522;28;20052;-91
2021/09/10 10:13:13;;;;;;;5.85;4.47;;;;;;;23.24;78.22;100843.91;5027464;28;20045;-83
2021/09/10 10:15:45;;;;;;;5.68;4.35;;;;;;;23.08;78.22;100843.66;5030569;28;20049;-84
2021/09/10 10:18:11;;;;;;;6.35;4.25;;;;;;;23.13;79.49;100843.75;5015776;28;20137;-85
2021/09/10 10:20:46;;;;;;;6.65;5.28;;;;;;;23.01;78.14;100839.41;5007552;28;20133;-83
2021/09/10 10:23:42;;;;;;;7.45;5.28;;;;;;;23.07;79.03;100843.88;5026399;28;20045;-83
2021/09/10 10:26:17;;;;;;;7.32;4.70;;;;;;;23.17;77.90;100839.44;5025329;28;20131;-86
2021/09/10 10:28:43;;;;;;;8.68;4.60;;;;;;;23.19;78.02;100840.03;5027686;28;20128;-87
2021/09/10 10:31:08;;;;;;;6.22;4.45;;;;;;;23.26;77.53;100844.50;5025531;28;20053;-86
2021/09/10 10:33:33;;;;;;;7.00;3.70;;;;;;;23.21;76.55;100837.03;5026225;28;20063;-85
2021/09/10 10:36:29;;;;;;;6.97;3.78;;;;;;;23.26;76.59;100839.03;5023827;28;20073;-84
2021/09/10 10:39:12;;;;;;;7.05;4.43;;;;;;;23.33;77.38;100836.94;5020531;28;20049;-84
2021/09/10 10:41:58;;;;;;;7.07;4.18;;;;;;;23.30;77.48;100830.06;5018693;28;20755;-83
2021/09/10 10:44:29;;;;;;;7.63;4.78;;;;;;;23.31;77.74;100828.19;4989672;28;20065;-85
2021/09/10 10:47:09;;;;;;;6.38;4.32;;;;;;;23.32;76.88;100829.81;4999365;28;20046;-85
2021/09/10 10:49:44;;;;;;;6.53;4.45;;;;;;;23.37;77.36;100825.28;5017175;28;20084;-85
2021/09/10 10:52:28;;;;;;;7.43;4.50;;;;;;;23.34;76.95;100823.03;5017409;28;20045;-84
2021/09/10 10:55:20;;;;;;;8.25;4.20;;;;;;;23.39;77.26;100830.47;5015850;28;20270;-85
2021/09/10 10:57:50;;;;;;;5.97;4.50;;;;;;;23.29;75.70;100822.13;5011703;28;20041;-83
2021/09/10 11:00:30;;;;;;;7.65;4.50;;;;;;;23.26;75.90;100825.34;5014186;28;20485;-87
2021/09/10 11:03:17;;;;;;;6.95;5.13;;;;;;;23.24;76.28;100828.31;5014770;28;20044;-89
2021/09/10 11:05:46;;;;;;;6.30;4.90;;;;;;;23.27;76.74;100816.88;5019120;28;20045;-88
2021/09/10 11:08:16;;;;;;;7.40;5.10;;;;;;;23.25;76.20;100818.19;5034200;28;20038;-86